sensor_id;sensor_type;location;lat;lon;timestamp;pressure;altitude;pressure_sealevel;temperature;humidity
26489;BME280;14169;43.684;10.484;2023-03-30T00:01:13;102557.72;;;12.72;100.00
26489;BME280;14169;43.684;10.484;2023-03-30T00:03:43;102551.59;;;12.75;100.00
26489;BME280;14169;43.684;10.484;2023-03-30T00:06:09;102543.72;;;12.76;100.00
26489;BME280;14169;43.684;10.484;2023-03-30T00:08:36;102549.81;;;12.78;100.00
26489;BME280;14169;43.684;10.484;2023-03-30T00:11:10;102545.47;;;12.77;100.00
26489;BME280;14169;43.684;10.484;2023-03-30T00:13:36;102550.72;;;12.77;100.00
26489;BME280;14169;43.684;10.484;2023-03-30T00:16:03;102549.84;;;12.77;100.00
26489;BME280;14169;43.684;10.484;2023-03-30T00:18:29;102544.59;;;12.78;100.00
26489;BME280;14169;43.684;10.484;2023-03-30T00:20:54;102540.25;;;12.77;100.00
26489;BME280;14169;43.684;10.484;2023-03-30T00:23:20;102541.16;;;12.75;100.00
26489;BME280;14169;43.684;10.484;2023-03-30T00:25:47;102545.50;;;12.74;100.00
26489;BME280;14169;43.684;10.484;2023-03-30T00:28:12;102552.50;;;12.72;100.00
26489;BME280;14169;43.684;10.484;2023-03-30T00:30:38;102547.28;;;12.71;100.00
26489;BME280;14169;43.684;10.484;2023-03-30T00:33:03;102545.56;;;12.71;100.00
26489;BME280;14169;43.684;10.484;2023-03-30T00:35:29;102541.16;;;12.73;100.00
26489;BME280;14169;43.684;10.484;2023-03-30T00:37:56;102530.72;;;12.73;100.00
26489;BME280;14169;43.684;10.484;2023-03-30T00:40:22;102535.03;;;12.74;100.00
26489;BME280;14169;43.684;10.484;2023-03-30T00:42:48;102531.63;;;12.69;100.00
26489;BME280;14169;43.684;10.484;2023-03-30T00:45:29;102531.63;;;12.67;100.00
26489;BME280;14169;43.684;10.484;2023-03-30T00:48:07;102520.31;;;12.67;100.00
26489;BME280;14169;43.684;10.484;2023-03-30T00:50:37;102522.91;;;12.69;100.00
26489;BME280;14169;43.684;10.484;2023-03-30T00:53:12;102515.94;;;12.69;100.00
26489;BME280;14169;43.684;10.484;2023-03-30T00:55:40;102522.09;;;12.65;100.00
26489;BME280;14169;43.684;10.484;2023-03-30T00:58:07;102520.41;;;12.61;100.00
26489;BME280;14169;43.684;10.484;2023-03-30T01:00:35;102522.16;;;12.57;100.00
26489;BME280;14169;43.684;10.484;2023-03-30T01:03:05;102524.84;;;12.53;100.00
26489;BME280;14169;43.684;10.484;2023-03-30T01:05:34;102513.53;;;12.51;100.00
26489;BME280;14169;43.684;10.484;2023-03-30T01:08:02;102510.94;;;12.48;100.00
26489;BME280;14169;43.684;10.484;2023-03-30T01:10:32;102501.47;;;12.41;100.00
26489;BME280;14169;43.684;10.484;2023-03-30T01:12:58;102494.50;;;12.41;100.00
26489;BME280;14169;43.684;10.484;2023-03-30T01:15:24;102497.94;;;12.45;100.00
26489;BME280;14169;43.684;10.484;2023-03-30T01:18:12;102508.44;;;12.39;100.00
26489;BME280;14169;43.684;10.484;2023-03-30T01:21:00;102515.41;;;12.38;100.00
26489;BME280;14169;43.684;10.484;2023-03-30T01:23:51;102510.22;;;12.34;100.00
26489;BME280;14169;43.684;10.484;2023-03-30T01:29:38;102507.69;;;12.28;100.00
26489;BME280;14169;43.684;10.484;2023-03-30T01:32:36;102498.16;;;12.22;100.00
26489;BME280;14169;43.684;10.484;2023-03-30T01:44:12;102488.72;;;12.08;100.00
26489;BME280;14169;43.684;10.484;2023-03-30T01:46:47;102488.78;;;12.05;100.00
26489;BME280;14169;43.684;10.484;2023-03-30T01:52:14;102484.44;;;12.05;100.00
26489;BME280;14169;43.684;10.484;2023-03-30T01:57:46;102486.13;;;12.09;100.00
26489;BME280;14169;43.684;10.484;2023-03-30T02:00:17;102484.44;;;12.05;100.00
26489;BME280;14169;43.684;10.484;2023-03-30T02:02:48;102485.31;;;12.03;100.00
26489;BME280;14169;43.684;10.484;2023-03-30T02:05:17;102484.44;;;12.02;100.00
26489;BME280;14169;43.684;10.484;2023-03-30T02:07:50;102483.56;;;12.03;100.00
26489;BME280;14169;43.684;10.484;2023-03-30T02:10:18;102484.47;;;12.01;100.00
26489;BME280;14169;43.684;10.484;2023-03-30T02:12:45;102489.66;;;12.02;100.00
26489;BME280;14169;43.684;10.484;2023-03-30T02:15:12;102491.44;;;11.99;100.00
26489;BME280;14169;43.684;10.484;2023-03-30T02:17:39;102486.25;;;11.97;100.00
26489;BME280;14169;43.684;10.484;2023-03-30T02:20:06;102484.53;;;11.95;100.00
26489;BME280;14169;43.684;10.484;2023-03-30T02:22:36;102481.91;;;11.93;100.00
26489;BME280;14169;43.684;10.484;2023-03-30T02:25:03;102474.06;;;11.90;100.00
26489;BME280;14169;43.684;10.484;2023-03-30T02:27:31;102480.19;;;11.91;100.00
26489;BME280;14169;43.684;10.484;2023-03-30T02:29:58;102484.53;;;11.95;100.00
26489;BME280;14169;43.684;10.484;2023-03-30T02:32:29;102480.16;;;11.97;100.00
26489;BME280;14169;43.684;10.484;2023-03-30T02:53:18;102476.69;;;11.95;100.00
26489;BME280;14169;43.684;10.484;2023-03-30T02:55:59;102477.56;;;11.95;100.00
26489;BME280;14169;43.684;10.484;2023-03-30T02:58:49;102471.41;;;11.98;100.00
26489;BME280;14169;43.684;10.484;2023-03-30T03:01:35;102472.28;;;11.98;100.00
26489;BME280;14169;43.684;10.484;2023-03-30T03:04:03;102468.81;;;11.98;100.00
26489;BME280;14169;43.684;10.484;2023-03-30T03:06:29;102470.59;;;11.94;100.00
26489;BME280;14169;43.684;10.484;2023-03-30T03:08:57;102455.81;;;11.89;100.00
26489;BME280;14169;43.684;10.484;2023-03-30T03:11:23;102454.97;;;11.87;100.00
26489;BME280;14169;43.684;10.484;2023-03-30T03:13:48;102462.81;;;11.87;100.00
26489;BME280;14169;43.684;10.484;2023-03-30T03:16:14;102458.44;;;11.89;100.00
26489;BME280;14169;43.684;10.484;2023-03-30T03:18:40;102458.44;;;11.87;100.00
26489;BME280;14169;43.684;10.484;2023-03-30T03:21:10;102461.94;;;11.86;100.00
26489;BME280;14169;43.684;10.484;2023-03-30T03:23:36;102460.19;;;11.87;100.00
26489;BME280;14169;43.684;10.484;2023-03-30T03:26:04;102452.38;;;11.83;100.00
26489;BME280;14169;43.684;10.484;2023-03-30T03:28:31;102451.53;;;11.83;100.00
26489;BME280;14169;43.684;10.484;2023-03-30T03:30:56;102454.09;;;11.86;100.00
26489;BME280;14169;43.684;10.484;2023-03-30T03:33:24;102455.00;;;11.85;100.00
26489;BME280;14169;43.684;10.484;2023-03-30T03:35:51;102442.81;;;11.82;100.00
26489;BME280;14169;43.684;10.484;2023-03-30T03:38:19;102450.66;;;11.82;100.00
26489;BME280;14169;43.684;10.484;2023-03-30T03:40:54;102447.16;;;11.83;100.00
26489;BME280;14169;43.684;10.484;2023-03-30T03:43:20;102443.66;;;11.86;100.00
26489;BME280;14169;43.684;10.484;2023-03-30T03:45:47;102445.41;;;11.87;100.00
26489;BME280;14169;43.684;10.484;2023-03-30T03:48:14;102457.56;;;11.87;100.00
26489;BME280;14169;43.684;10.484;2023-03-30T03:50:40;102451.50;;;11.85;100.00
26489;BME280;14169;43.684;10.484;2023-03-30T03:53:07;102461.94;;;11.85;100.00
26489;BME280;14169;43.684;10.484;2023-03-30T03:55:32;102459.38;;;11.83;100.00
26489;BME280;14169;43.684;10.484;2023-03-30T03:58:03;102453.28;;;11.79;100.00
26489;BME280;14169;43.684;10.484;2023-03-30T04:00:29;102451.59;;;11.77;100.00
26489;BME280;14169;43.684;10.484;2023-03-30T04:02:56;102452.50;;;11.71;100.00
26489;BME280;14169;43.684;10.484;2023-03-30T04:05:23;102456.00;;;11.69;100.00
26489;BME280;14169;43.684;10.484;2023-03-30T04:07:48;102449.03;;;11.68;100.00
26489;BME280;14169;43.684;10.484;2023-03-30T04:10:14;102442.06;;;11.71;100.00
26489;BME280;14169;43.684;10.484;2023-03-30T04:12:40;102437.69;;;11.75;100.00
26489;BME280;14169;43.684;10.484;2023-03-30T04:15:06;102440.28;;;11.75;100.00
26489;BME280;14169;43.684;10.484;2023-03-30T04:17:32;102441.16;;;11.75;100.00
26489;BME280;14169;43.684;10.484;2023-03-30T04:19:59;102443.84;;;11.66;100.00
26489;BME280;14169;43.684;10.484;2023-03-30T04:22:29;102436.06;;;11.63;100.00
26489;BME280;14169;43.684;10.484;2023-03-30T04:25:00;102431.69;;;11.64;100.00
26489;BME280;14169;43.684;10.484;2023-03-30T04:27:25;102426.47;;;11.65;100.00
26489;BME280;14169;43.684;10.484;2023-03-30T04:29:53;102436.03;;;11.65;100.00
26489;BME280;14169;43.684;10.484;2023-03-30T04:32:25;102428.22;;;11.62;100.00
26489;BME280;14169;43.684;10.484;2023-03-30T04:34:50;102436.97;;;11.59;100.00
26489;BME280;14169;43.684;10.484;2023-03-30T04:37:22;102437.03;;;11.50;100.00
26489;BME280;14169;43.684;10.484;2023-03-30T04:39:55;102442.38;;;11.35;100.00
26489;BME280;14169;43.684;10.484;2023-03-30T04:42:22;102432.84;;;11.31;100.00
26489;BME280;14169;43.684;10.484;2023-03-30T04:44:55;102430.25;;;11.28;100.00
26489;BME280;14169;43.684;10.484;2023-03-30T04:47:22;102441.56;;;11.27;100.00
26489;BME280;14169;43.684;10.484;2023-03-30T04:49:48;102449.44;;;11.23;100.00
26489;BME280;14169;43.684;10.484;2023-03-30T04:52:13;102450.34;;;11.17;100.00
26489;BME280;14169;43.684;10.484;2023-03-30T04:54:39;102453.00;;;11.08;100.00
26489;BME280;14169;43.684;10.484;2023-03-30T04:57:04;102457.38;;;11.08;100.00
26489;BME280;14169;43.684;10.484;2023-03-30T04:59:29;102456.50;;;11.07;100.00
26489;BME280;14169;43.684;10.484;2023-03-30T05:01:55;102456.50;;;11.07;100.00
26489;BME280;14169;43.684;10.484;2023-03-30T05:04:21;102459.09;;;11.09;100.00
26489;BME280;14169;43.684;10.484;2023-03-30T05:06:48;102452.13;;;11.11;100.00
26489;BME280;14169;43.684;10.484;2023-03-30T05:09:14;102446.91;;;11.09;100.00
26489;BME280;14169;43.684;10.484;2023-03-30T05:11:40;102454.72;;;11.12;100.00
26489;BME280;14169;43.684;10.484;2023-03-30T05:14:05;102456.47;;;11.10;100.00
26489;BME280;14169;43.684;10.484;2023-03-30T05:16:31;102458.22;;;11.11;100.00
26489;BME280;14169;43.684;10.484;2023-03-30T05:18:56;102450.34;;;11.14;100.00
26489;BME280;14169;43.684;10.484;2023-03-30T05:21:22;102452.06;;;11.18;100.00
26489;BME280;14169;43.684;10.484;2023-03-30T05:23:47;102446.84;;;11.21;100.00
26489;BME280;14169;43.684;10.484;2023-03-30T05:26:13;102443.31;;;11.27;100.00
26489;BME280;14169;43.684;10.484;2023-03-30T05:28:38;102449.34;;;11.33;100.00
26489;BME280;14169;43.684;10.484;2023-03-30T05:31:04;102441.47;;;11.39;100.00
26489;BME280;14169;43.684;10.484;2023-03-30T05:33:30;102440.59;;;11.40;100.00
26489;BME280;14169;43.684;10.484;2023-03-30T05:35:56;102436.25;;;11.41;100.00
26489;BME280;14169;43.684;10.484;2023-03-30T05:38:21;102442.28;;;11.44;100.00
26489;BME280;14169;43.684;10.484;2023-03-30T05:40:51;102433.56;;;11.48;100.00
26489;BME280;14169;43.684;10.484;2023-03-30T05:43:17;102431.78;;;11.53;100.00
26489;BME280;14169;43.684;10.484;2023-03-30T05:45:42;102433.50;;;11.57;100.00
26489;BME280;14169;43.684;10.484;2023-03-30T05:48:08;102435.19;;;11.61;100.00
26489;BME280;14169;43.684;10.484;2023-03-30T05:50:34;102450.00;;;11.61;100.00
26489;BME280;14169;43.684;10.484;2023-03-30T05:53:00;102450.88;;;11.61;100.00
26489;BME280;14169;43.684;10.484;2023-03-30T05:55:25;102436.03;;;11.65;100.00
26489;BME280;14169;43.684;10.484;2023-03-30T05:57:52;102444.72;;;11.67;100.00
26489;BME280;14169;43.684;10.484;2023-03-30T06:00:17;102449.00;;;11.72;100.00
26489;BME280;14169;43.684;10.484;2023-03-30T06:02:45;102455.88;;;11.82;100.00
26489;BME280;14169;43.684;10.484;2023-03-30T06:05:11;102452.34;;;11.88;100.00
26489;BME280;14169;43.684;10.484;2023-03-30T06:07:37;102456.66;;;11.94;100.00
26489;BME280;14169;43.684;10.484;2023-03-30T06:10:03;102453.97;;;12.03;100.00
26489;BME280;14169;43.684;10.484;2023-03-30T06:12:31;102453.94;;;12.04;100.00
26489;BME280;14169;43.684;10.484;2023-03-30T06:14:56;102459.97;;;12.11;100.00
26489;BME280;14169;43.684;10.484;2023-03-30T06:17:22;102466.88;;;12.16;100.00
26489;BME280;14169;43.684;10.484;2023-03-30T06:19:47;102458.09;;;12.23;100.00
26489;BME280;14169;43.684;10.484;2023-03-30T06:22:13;102467.56;;;12.32;100.00
26489;BME280;14169;43.684;10.484;2023-03-30T06:24:38;102463.97;;;12.42;100.00
26489;BME280;14169;43.684;10.484;2023-03-30T06:27:03;102473.38;;;12.56;100.00
26489;BME280;14169;43.684;10.484;2023-03-30T06:29:29;102470.56;;;12.73;100.00
26489;BME280;14169;43.684;10.484;2023-03-30T06:31:55;102461.72;;;12.80;100.00
26489;BME280;14169;43.684;10.484;2023-03-30T06:34:20;102460.69;;;12.92;100.00
26489;BME280;14169;43.684;10.484;2023-03-30T06:36:46;102457.00;;;13.06;100.00
26489;BME280;14169;43.684;10.484;2023-03-30T06:39:13;102461.19;;;13.19;100.00
26489;BME280;14169;43.684;10.484;2023-03-30T06:41:38;102465.38;;;13.32;100.00
26489;BME280;14169;43.684;10.484;2023-03-30T06:44:04;102468.66;;;13.43;100.00
26489;BME280;14169;43.684;10.484;2023-03-30T06:46:31;102473.69;;;13.57;100.00
26489;BME280;14169;43.684;10.484;2023-03-30T06:48:57;102472.72;;;13.63;100.00
26489;BME280;14169;43.684;10.484;2023-03-30T06:51:23;102476.19;;;13.65;100.00
26489;BME280;14169;43.684;10.484;2023-03-30T06:53:48;102482.16;;;13.71;100.00
26489;BME280;14169;43.684;10.484;2023-03-30T06:56:13;102479.41;;;13.80;100.00
26489;BME280;14169;43.684;10.484;2023-03-30T06:58:39;102478.38;;;13.87;100.00
26489;BME280;14169;43.684;10.484;2023-03-30T07:01:10;102479.13;;;13.97;100.00
26489;BME280;14169;43.684;10.484;2023-03-30T07:03:36;102473.72;;;14.04;100.00
26489;BME280;14169;43.684;10.484;2023-03-30T07:06:02;102475.25;;;14.16;100.00
26489;BME280;14169;43.684;10.484;2023-03-30T07:08:28;102477.00;;;14.17;100.00
26489;BME280;14169;43.684;10.484;2023-03-30T07:10:54;102489.91;;;14.26;100.00
26489;BME280;14169;43.684;10.484;2023-03-30T07:13:19;102484.53;;;14.33;100.00
26489;BME280;14169;43.684;10.484;2023-03-30T07:15:45;102491.38;;;14.42;100.00
26489;BME280;14169;43.684;10.484;2023-03-30T07:18:11;102495.53;;;14.52;100.00
26489;BME280;14169;43.684;10.484;2023-03-30T07:20:37;102495.44;;;14.58;100.00
26489;BME280;14169;43.684;10.484;2023-03-30T07:23:02;102501.44;;;14.63;100.00
26489;BME280;14169;43.684;10.484;2023-03-30T07:25:28;102499.59;;;14.68;100.00
26489;BME280;14169;43.684;10.484;2023-03-30T07:27:53;102506.41;;;14.77;100.00
26489;BME280;14169;43.684;10.484;2023-03-30T07:30:20;102509.81;;;14.80;100.00
26489;BME280;14169;43.684;10.484;2023-03-30T07:32:47;102510.78;;;14.76;100.00
26489;BME280;14169;43.684;10.484;2023-03-30T07:35:14;102507.34;;;14.74;100.00
26489;BME280;14169;43.684;10.484;2023-03-30T07:37:39;102506.34;;;14.80;100.00
26489;BME280;14169;43.684;10.484;2023-03-30T07:40:06;102503.75;;;14.78;100.00
26489;BME280;14169;43.684;10.484;2023-03-30T07:42:35;102506.41;;;14.75;100.00
26489;BME280;14169;43.684;10.484;2023-03-30T07:45:01;102518.69;;;14.75;100.00
26489;BME280;14169;43.684;10.484;2023-03-30T07:47:26;102528.28;;;14.76;100.00
26489;BME280;14169;43.684;10.484;2023-03-30T07:49:52;102530.97;;;14.73;100.00
26489;BME280;14169;43.684;10.484;2023-03-30T07:52:17;102526.69;;;14.69;100.00
26489;BME280;14169;43.684;10.484;2023-03-30T07:54:43;102520.50;;;14.71;100.00
26489;BME280;14169;43.684;10.484;2023-03-30T07:57:09;102519.53;;;14.77;100.00
26489;BME280;14169;43.684;10.484;2023-03-30T07:59:36;102527.16;;;14.89;100.00
26489;BME280;14169;43.684;10.484;2023-03-30T08:02:02;102528.50;;;15.06;100.00
26489;BME280;14169;43.684;10.484;2023-03-30T08:04:29;102525.44;;;15.26;100.00
26489;BME280;14169;43.684;10.484;2023-03-30T08:06:56;102528.53;;;15.45;100.00
26489;BME280;14169;43.684;10.484;2023-03-30T08:09:21;102521.19;;;15.59;100.00
26489;BME280;14169;43.684;10.484;2023-03-30T08:11:47;102519.84;;;15.78;100.00
26489;BME280;14169;43.684;10.484;2023-03-30T08:14:12;102520.34;;;15.92;100.00
26489;BME280;14169;43.684;10.484;2023-03-30T08:16:38;102521.84;;;16.02;100.00
26489;BME280;14169;43.684;10.484;2023-03-30T08:19:03;102526.03;;;16.09;100.00
26489;BME280;14169;43.684;10.484;2023-03-30T08:21:28;102535.50;;;16.16;100.00
26489;BME280;14169;43.684;10.484;2023-03-30T08:23:54;102525.53;;;16.27;100.00
26489;BME280;14169;43.684;10.484;2023-03-30T08:26:24;102521.97;;;16.30;100.00
26489;BME280;14169;43.684;10.484;2023-03-30T08:28:50;102517.75;;;16.24;100.00
26489;BME280;14169;43.684;10.484;2023-03-30T08:31:16;102507.13;;;16.27;100.00
26489;BME280;14169;43.684;10.484;2023-03-30T08:33:45;102509.28;;;16.45;100.00
26489;BME280;14169;43.684;10.484;2023-03-30T08:36:11;102513.34;;;16.57;100.00
26489;BME280;14169;43.684;10.484;2023-03-30T08:38:39;102517.31;;;16.71;100.00
26489;BME280;14169;43.684;10.484;2023-03-30T08:43:52;102511.97;;;17.04;100.00
26489;BME280;14169;43.684;10.484;2023-03-30T08:46:21;102511.59;;;17.16;100.00
26489;BME280;14169;43.684;10.484;2023-03-30T08:48:47;102509.47;;;17.27;100.00
26489;BME280;14169;43.684;10.484;2023-03-30T08:51:18;102502.22;;;17.35;100.00
26489;BME280;14169;43.684;10.484;2023-03-30T08:53:47;102502.03;;;17.41;100.00
26489;BME280;14169;43.684;10.484;2023-03-30T08:56:27;102503.31;;;17.55;100.00
26489;BME280;14169;43.684;10.484;2023-03-30T09:06:42;102490.84;;;18.11;100.00
26489;BME280;14169;43.684;10.484;2023-03-30T09:09:12;102487.81;;;18.23;100.00
26489;BME280;14169;43.684;10.484;2023-03-30T09:11:38;102473.81;;;18.44;100.00
26489;BME280;14169;43.684;10.484;2023-03-30T09:14:06;102476.81;;;18.59;100.00
26489;BME280;14169;43.684;10.484;2023-03-30T09:16:56;102470.47;;;18.15;100.00
26489;BME280;14169;43.684;10.484;2023-03-30T09:19:31;102470.88;;;18.29;100.00
26489;BME280;14169;43.684;10.484;2023-03-30T09:21:58;102470.50;;;18.63;100.00
26489;BME280;14169;43.684;10.484;2023-03-30T09:24:26;102462.00;;;18.78;100.00
26489;BME280;14169;43.684;10.484;2023-03-30T09:29:47;102442.34;;;18.85;100.00
26489;BME280;14169;43.684;10.484;2023-03-30T09:34:53;102455.72;;;19.25;100.00
26489;BME280;14169;43.684;10.484;2023-03-30T09:37:21;102443.56;;;19.63;100.00
26489;BME280;14169;43.684;10.484;2023-03-30T09:39:47;102453.81;;;19.92;100.00
26489;BME280;14169;43.684;10.484;2023-03-30T09:42:34;102445.66;;;19.96;100.00
26489;BME280;14169;43.684;10.484;2023-03-30T09:45:25;102456.81;;;20.23;100.00
26489;BME280;14169;43.684;10.484;2023-03-30T09:47:52;102443.75;;;20.39;100.00
26489;BME280;14169;43.684;10.484;2023-03-30T09:50:22;102439.06;;;20.64;100.00
26489;BME280;14169;43.684;10.484;2023-03-30T09:56:39;102421.50;;;20.80;100.00
26489;BME280;14169;43.684;10.484;2023-03-30T09:58:38;102429.81;;;21.10;100.00
26489;BME280;14169;43.684;10.484;2023-03-30T10:03:31;102421.53;;;21.51;100.00
26489;BME280;14169;43.684;10.484;2023-03-30T10:06:23;102423.81;;;21.40;100.00
26489;BME280;14169;43.684;10.484;2023-03-30T10:08:50;102412.94;;;20.75;100.00
26489;BME280;14169;43.684;10.484;2023-03-30T10:11:42;102404.31;;;20.33;100.00
26489;BME280;14169;43.684;10.484;2023-03-30T10:14:34;102406.75;;;19.98;100.00
26489;BME280;14169;43.684;10.484;2023-03-30T10:17:02;102403.16;;;20.19;100.00
26489;BME280;14169;43.684;10.484;2023-03-30T10:19:28;102411.84;;;20.42;100.00
26489;BME280;14169;43.684;10.484;2023-03-30T10:21:56;102406.25;;;20.66;100.00
26489;BME280;14169;43.684;10.484;2023-03-30T10:24:28;102412.06;;;20.93;100.00
26489;BME280;14169;43.684;10.484;2023-03-30T10:27:09;102406.78;;;20.56;100.00
26489;BME280;14169;43.684;10.484;2023-03-30T10:29:35;102407.72;;;20.16;100.00
26489;BME280;14169;43.684;10.484;2023-03-30T10:32:09;102406.09;;;19.73;100.00
26489;BME280;14169;43.684;10.484;2023-03-30T10:34:38;102392.97;;;19.70;100.00
26489;BME280;14169;43.684;10.484;2023-03-30T10:37:14;102401.88;;;19.69;100.00
26489;BME280;14169;43.684;10.484;2023-03-30T10:39:42;102394.78;;;19.90;100.00
26489;BME280;14169;43.684;10.484;2023-03-30T10:42:15;102396.50;;;20.11;100.00
26489;BME280;14169;43.684;10.484;2023-03-30T10:47:19;102390.88;;;20.74;100.00
26489;BME280;14169;43.684;10.484;2023-03-30T10:55:10;102393.28;;;20.60;100.00
26489;BME280;14169;43.684;10.484;2023-03-30T11:00:29;102377.50;;;20.22;100.00
26489;BME280;14169;43.684;10.484;2023-03-30T11:03:07;102373.09;;;20.20;100.00
26489;BME280;14169;43.684;10.484;2023-03-30T11:05:43;102362.09;;;20.67;100.00
26489;BME280;14169;43.684;10.484;2023-03-30T11:08:37;102367.97;;;21.26;94.31
26489;BME280;14169;43.684;10.484;2023-03-30T11:11:04;102359.97;;;21.62;92.69
26489;BME280;14169;43.684;10.484;2023-03-30T11:13:32;102354.88;;;22.07;90.82
26489;BME280;14169;43.684;10.484;2023-03-30T11:16:25;102357.31;;;21.62;87.47
26489;BME280;14169;43.684;10.484;2023-03-30T11:19:13;102368.00;;;20.90;94.65
26489;BME280;14169;43.684;10.484;2023-03-30T11:21:57;102375.75;;;20.20;99.34
26489;BME280;14169;43.684;10.484;2023-03-30T11:24:26;102368.81;;;19.99;100.00
26489;BME280;14169;43.684;10.484;2023-03-30T11:26:55;102365.75;;;19.68;100.00
26489;BME280;14169;43.684;10.484;2023-03-30T11:29:41;102370.66;;;19.57;100.00
26489;BME280;14169;43.684;10.484;2023-03-30T11:32:14;102355.06;;;19.51;100.00
26489;BME280;14169;43.684;10.484;2023-03-30T11:37:25;102350.72;;;19.50;100.00
26489;BME280;14169;43.684;10.484;2023-03-30T11:39:59;102347.13;;;19.51;100.00
26489;BME280;14169;43.684;10.484;2023-03-30T11:42:30;102331.88;;;19.96;100.00
26489;BME280;14169;43.684;10.484;2023-03-30T11:44:56;102334.34;;;20.01;100.00
26489;BME280;14169;43.684;10.484;2023-03-30T11:55:43;102324.66;;;20.74;100.00
26489;BME280;14169;43.684;10.484;2023-03-30T12:03:34;102314.94;;;20.75;100.00
26489;BME280;14169;43.684;10.484;2023-03-30T12:09:00;102304.09;;;20.44;100.00
26489;BME280;14169;43.684;10.484;2023-03-30T12:12:17;102290.06;;;20.42;100.00
26489;BME280;14169;43.684;10.484;2023-03-30T12:17:10;102288.13;;;20.62;100.00
26489;BME280;14169;43.684;10.484;2023-03-30T12:19:44;102295.13;;;20.82;100.00
26489;BME280;14169;43.684;10.484;2023-03-30T12:22:24;102300.28;;;21.02;100.00
26489;BME280;14169;43.684;10.484;2023-03-30T12:27:22;102292.50;;;20.99;100.00
26489;BME280;14169;43.684;10.484;2023-03-30T12:29:50;102289.06;;;21.31;100.00
26489;BME280;14169;43.684;10.484;2023-03-30T12:32:26;102287.66;;;21.41;100.00
26489;BME280;14169;43.684;10.484;2023-03-30T12:34:52;102289.16;;;21.79;100.00
26489;BME280;14169;43.684;10.484;2023-03-30T12:37:32;102279.28;;;22.30;97.46
26489;BME280;14169;43.684;10.484;2023-03-30T12:40:06;102272.03;;;22.33;95.96
26489;BME280;14169;43.684;10.484;2023-03-30T12:42:39;102288.44;;;22.09;93.23
26489;BME280;14169;43.684;10.484;2023-03-30T12:45:28;102284.75;;;21.46;97.40
26489;BME280;14169;43.684;10.484;2023-03-30T12:51:18;102264.78;;;20.70;100.00
26489;BME280;14169;43.684;10.484;2023-03-30T13:04:01;102242.00;;;21.19;100.00
26489;BME280;14169;43.684;10.484;2023-03-30T13:06:34;102241.63;;;20.57;100.00
26489;BME280;14169;43.684;10.484;2023-03-30T13:19:27;102225.78;;;19.84;100.00
26489;BME280;14169;43.684;10.484;2023-03-30T13:29:57;102224.69;;;20.25;100.00
26489;BME280;14169;43.684;10.484;2023-03-30T13:40:47;102211.69;;;21.08;100.00
26489;BME280;14169;43.684;10.484;2023-03-30T13:43:28;102202.19;;;21.36;100.00
26489;BME280;14169;43.684;10.484;2023-03-30T13:46:06;102206.13;;;21.12;100.00
26489;BME280;14169;43.684;10.484;2023-03-30T13:49:00;102208.47;;;20.67;100.00
26489;BME280;14169;43.684;10.484;2023-03-30T13:51:26;102212.31;;;21.45;100.00
26489;BME280;14169;43.684;10.484;2023-03-30T13:53:59;102201.25;;;22.62;100.00
26489;BME280;14169;43.684;10.484;2023-03-30T13:56:29;102213.56;;;22.18;100.00
26489;BME280;14169;43.684;10.484;2023-03-30T13:59:02;102209.56;;;22.26;99.43
26489;BME280;14169;43.684;10.484;2023-03-30T14:01:30;102204.56;;;22.51;98.71
26489;BME280;14169;43.684;10.484;2023-03-30T14:03:57;102207.97;;;22.83;93.14
26489;BME280;14169;43.684;10.484;2023-03-30T14:06:31;102201.69;;;23.14;95.88
26489;BME280;14169;43.684;10.484;2023-03-30T14:11:40;102195.16;;;21.02;100.00
26489;BME280;14169;43.684;10.484;2023-03-30T14:14:14;102196.53;;;22.22;100.00
26489;BME280;14169;43.684;10.484;2023-03-30T14:16:41;102196.50;;;22.53;94.95
26489;BME280;14169;43.684;10.484;2023-03-30T14:19:33;102195.72;;;22.21;95.73
26489;BME280;14169;43.684;10.484;2023-03-30T14:22:10;102179.22;;;22.90;95.98
26489;BME280;14169;43.684;10.484;2023-03-30T14:24:55;102191.72;;;23.03;91.58
26489;BME280;14169;43.684;10.484;2023-03-30T14:27:21;102181.56;;;23.10;92.60
26489;BME280;14169;43.684;10.484;2023-03-30T14:29:51;102172.63;;;22.97;92.72
26489;BME280;14169;43.684;10.484;2023-03-30T14:32:18;102176.34;;;23.08;94.21
26489;BME280;14169;43.684;10.484;2023-03-30T14:34:48;102165.84;;;22.91;94.53
26489;BME280;14169;43.684;10.484;2023-03-30T14:37:14;102175.50;;;22.48;96.63
26489;BME280;14169;43.684;10.484;2023-03-30T14:39:46;102168.13;;;21.93;100.00
26489;BME280;14169;43.684;10.484;2023-03-30T14:42:15;102177.34;;;21.54;100.00
26489;BME280;14169;43.684;10.484;2023-03-30T14:44:41;102170.84;;;21.60;100.00
26489;BME280;14169;43.684;10.484;2023-03-30T14:47:07;102165.25;;;22.42;99.59
26489;BME280;14169;43.684;10.484;2023-03-30T14:49:33;102163.06;;;22.79;95.40
26489;BME280;14169;43.684;10.484;2023-03-30T14:54:27;102159.47;;;22.50;94.01
26489;BME280;14169;43.684;10.484;2023-03-30T14:57:02;102156.22;;;22.75;94.51
26489;BME280;14169;43.684;10.484;2023-03-30T14:59:31;102136.53;;;22.93;93.04
26489;BME280;14169;43.684;10.484;2023-03-30T15:01:58;102112.53;;;23.08;91.93